KEAN/EAN METAR and TAF weather

Enter ICAO airport designator
Station Type Date Time Source
KEAN METAR 2020/09/25 19:50 UTC NOAA

KEAN 251950Z AUTO 00000KT 10SM CLR 29/M01 A2991 RMK AO2 T02911009


Station Type Date Time Source
KEAN Decoded METAR 2020/09/25 19:50 UTC NOAA

Station name not available
Sep 25, 2020 - 03:50 PM EDT / 2020.09.25 1950 UTC
Wind: Calm:0
Visibility: 10 mile(s):0
Sky conditions: clear
Temperature: 84.4 F (29.1 C)
Dew Point: 30.4 F (-0.9 C)
Relative Humidity: 14%
Pressure (altimeter): 29.91 in. Hg (1012 hPa)
ob: KEAN 251950Z AUTO 00000KT 10SM CLR 29/M01 A2991 RMK AO2 T02911009
cycle: 20

Station Type Date Time Source
KEAN TAF UTC NOAA

Error!

Example: see airport list